sensor_id;sensor_type;location;lat;lon;timestamp;pressure;altitude;pressure_sealevel;temperature;humidity
34925;BME280;21130;51.728;8.748;2024-03-02T00:00:49;99177.47;;;6.06;100.00
34925;BME280;21130;51.728;8.748;2024-03-02T00:03:16;99186.84;;;6.05;100.00
34925;BME280;21130;51.728;8.748;2024-03-02T00:05:43;99184.81;;;6.00;100.00
34925;BME280;21130;51.728;8.748;2024-03-02T00:08:10;99175.38;;;5.96;100.00
34925;BME280;21130;51.728;8.748;2024-03-02T00:10:38;99171.19;;;5.94;100.00
34925;BME280;21130;51.728;8.748;2024-03-02T00:13:06;99184.34;;;5.92;100.00
34925;BME280;21130;51.728;8.748;2024-03-02T00:15:51;99184.25;;;5.87;100.00
34925;BME280;21130;51.728;8.748;2024-03-02T00:18:19;99180.75;;;5.74;100.00
34925;BME280;21130;51.728;8.748;2024-03-02T00:20:46;99176.78;;;5.70;100.00
34925;BME280;21130;51.728;8.748;2024-03-02T00:23:14;99173.94;;;5.65;100.00
34925;BME280;21130;51.728;8.748;2024-03-02T00:25:43;99164.00;;;5.64;100.00
34925;BME280;21130;51.728;8.748;2024-03-02T00:28:14;99172.66;;;5.56;100.00
34925;BME280;21130;51.728;8.748;2024-03-02T00:31:01;99169.91;;;5.56;100.00
34925;BME280;21130;51.728;8.748;2024-03-02T00:33:31;99168.56;;;5.58;100.00
34925;BME280;21130;51.728;8.748;2024-03-02T00:35:58;99168.47;;;5.53;100.00
34925;BME280;21130;51.728;8.748;2024-03-02T00:38:26;99166.00;;;5.52;100.00
34925;BME280;21130;51.728;8.748;2024-03-02T00:40:54;99163.28;;;5.40;100.00
34925;BME280;21130;51.728;8.748;2024-03-02T00:43:44;99164.81;;;5.36;100.00
34925;BME280;21130;51.728;8.748;2024-03-02T00:46:12;99162.91;;;5.36;100.00
34925;BME280;21130;51.728;8.748;2024-03-02T00:48:42;99160.53;;;5.28;100.00
34925;BME280;21130;51.728;8.748;2024-03-02T00:51:13;99150.72;;;5.32;100.00
34925;BME280;21130;51.728;8.748;2024-03-02T00:53:40;99153.38;;;5.27;100.00
34925;BME280;21130;51.728;8.748;2024-03-02T00:56:09;99139.53;;;5.22;100.00
34925;BME280;21130;51.728;8.748;2024-03-02T00:58:36;99146.91;;;5.22;100.00
34925;BME280;21130;51.728;8.748;2024-03-02T01:01:03;99140.94;;;5.25;100.00
34925;BME280;21130;51.728;8.748;2024-03-02T01:03:30;99140.69;;;5.26;100.00
34925;BME280;21130;51.728;8.748;2024-03-02T01:05:57;99151.34;;;5.23;100.00
34925;BME280;21130;51.728;8.748;2024-03-02T01:08:23;99145.84;;;5.23;100.00
34925;BME280;21130;51.728;8.748;2024-03-02T01:10:50;99146.34;;;5.19;100.00
34925;BME280;21130;51.728;8.748;2024-03-02T01:13:18;99149.44;;;5.23;100.00
34925;BME280;21130;51.728;8.748;2024-03-02T01:15:44;99152.19;;;5.11;100.00
34925;BME280;21130;51.728;8.748;2024-03-02T01:18:10;99156.88;;;5.11;100.00
34925;BME280;21130;51.728;8.748;2024-03-02T01:20:37;99155.09;;;5.05;100.00
34925;BME280;21130;51.728;8.748;2024-03-02T01:23:03;99159.91;;;4.97;100.00
34925;BME280;21130;51.728;8.748;2024-03-02T01:25:30;99159.63;;;4.99;100.00
34925;BME280;21130;51.728;8.748;2024-03-02T01:27:56;99157.88;;;4.93;100.00
34925;BME280;21130;51.728;8.748;2024-03-02T01:30:24;99160.38;;;4.94;100.00
34925;BME280;21130;51.728;8.748;2024-03-02T01:32:51;99147.84;;;4.87;100.00
34925;BME280;21130;51.728;8.748;2024-03-02T01:35:17;99151.66;;;4.86;100.00
34925;BME280;21130;51.728;8.748;2024-03-02T01:37:44;99152.63;;;4.80;100.00
34925;BME280;21130;51.728;8.748;2024-03-02T01:40:11;99154.41;;;4.74;100.00
34925;BME280;21130;51.728;8.748;2024-03-02T01:42:38;99157.91;;;4.69;100.00
34925;BME280;21130;51.728;8.748;2024-03-02T01:45:06;99152.28;;;4.64;100.00
34925;BME280;21130;51.728;8.748;2024-03-02T01:47:34;99138.88;;;4.68;100.00
34925;BME280;21130;51.728;8.748;2024-03-02T01:50:01;99144.88;;;4.65;100.00
34925;BME280;21130;51.728;8.748;2024-03-02T01:52:28;99138.28;;;4.66;100.00
34925;BME280;21130;51.728;8.748;2024-03-02T01:54:54;99142.59;;;4.50;100.00
34925;BME280;21130;51.728;8.748;2024-03-02T01:57:21;99145.13;;;4.51;100.00
34925;BME280;21130;51.728;8.748;2024-03-02T01:59:48;99132.44;;;4.39;100.00
34925;BME280;21130;51.728;8.748;2024-03-02T02:02:15;99135.78;;;4.29;100.00
34925;BME280;21130;51.728;8.748;2024-03-02T02:04:43;99138.03;;;4.20;100.00
34925;BME280;21130;51.728;8.748;2024-03-02T02:07:10;99128.84;;;4.15;100.00
34925;BME280;21130;51.728;8.748;2024-03-02T02:09:36;99126.84;;;4.22;100.00
34925;BME280;21130;51.728;8.748;2024-03-02T02:12:03;99121.09;;;4.11;100.00
34925;BME280;21130;51.728;8.748;2024-03-02T02:14:32;99123.31;;;4.03;100.00
34925;BME280;21130;51.728;8.748;2024-03-02T02:16:58;99130.00;;;3.95;100.00
34925;BME280;21130;51.728;8.748;2024-03-02T02:19:24;99128.09;;;3.84;100.00
34925;BME280;21130;51.728;8.748;2024-03-02T02:21:52;99115.28;;;3.78;100.00
34925;BME280;21130;51.728;8.748;2024-03-02T02:24:19;99119.56;;;3.74;100.00
34925;BME280;21130;51.728;8.748;2024-03-02T02:26:45;99109.91;;;3.83;100.00
34925;BME280;21130;51.728;8.748;2024-03-02T02:29:11;99104.56;;;3.76;100.00
34925;BME280;21130;51.728;8.748;2024-03-02T02:31:39;99107.66;;;3.80;100.00
34925;BME280;21130;51.728;8.748;2024-03-02T02:34:05;99108.97;;;3.77;100.00
34925;BME280;21130;51.728;8.748;2024-03-02T02:36:32;99100.16;;;3.87;100.00
34925;BME280;21130;51.728;8.748;2024-03-02T02:39:02;99103.38;;;3.84;100.00
34925;BME280;21130;51.728;8.748;2024-03-02T02:41:30;99099.19;;;3.93;100.00
34925;BME280;21130;51.728;8.748;2024-03-02T02:43:56;99101.13;;;3.93;100.00
34925;BME280;21130;51.728;8.748;2024-03-02T02:46:23;99095.63;;;3.93;100.00
34925;BME280;21130;51.728;8.748;2024-03-02T02:48:57;99088.69;;;3.90;100.00
34925;BME280;21130;51.728;8.748;2024-03-02T02:51:24;99090.13;;;3.93;100.00
34925;BME280;21130;51.728;8.748;2024-03-02T02:53:51;99089.78;;;3.89;100.00
34925;BME280;21130;51.728;8.748;2024-03-02T02:56:19;99072.84;;;3.92;100.00
34925;BME280;21130;51.728;8.748;2024-03-02T02:58:46;99088.22;;;3.93;100.00
34925;BME280;21130;51.728;8.748;2024-03-02T03:01:12;99078.44;;;3.97;100.00
34925;BME280;21130;51.728;8.748;2024-03-02T03:03:39;99069.84;;;3.94;100.00
34925;BME280;21130;51.728;8.748;2024-03-02T03:06:06;99066.66;;;3.97;100.00
34925;BME280;21130;51.728;8.748;2024-03-02T03:08:32;99072.47;;;4.00;100.00
34925;BME280;21130;51.728;8.748;2024-03-02T03:10:59;99064.38;;;4.05;100.00
34925;BME280;21130;51.728;8.748;2024-03-02T03:13:27;99071.66;;;4.00;100.00
34925;BME280;21130;51.728;8.748;2024-03-02T03:15:54;99073.56;;;4.11;100.00
34925;BME280;21130;51.728;8.748;2024-03-02T03:18:20;99068.31;;;4.21;100.00
34925;BME280;21130;51.728;8.748;2024-03-02T03:20:46;99072.13;;;4.20;100.00
34925;BME280;21130;51.728;8.748;2024-03-02T03:23:13;99070.94;;;4.16;100.00
34925;BME280;21130;51.728;8.748;2024-03-02T03:25:41;99072.47;;;4.24;100.00
34925;BME280;21130;51.728;8.748;2024-03-02T03:28:08;99060.44;;;4.37;100.00
34925;BME280;21130;51.728;8.748;2024-03-02T03:30:36;99056.94;;;4.41;100.00
34925;BME280;21130;51.728;8.748;2024-03-02T03:33:03;99066.16;;;4.47;100.00
34925;BME280;21130;51.728;8.748;2024-03-02T03:35:29;99064.00;;;4.49;100.00
34925;BME280;21130;51.728;8.748;2024-03-02T03:37:56;99064.34;;;4.64;100.00
34925;BME280;21130;51.728;8.748;2024-03-02T03:40:22;99064.47;;;4.58;100.00
34925;BME280;21130;51.728;8.748;2024-03-02T03:42:49;99064.56;;;4.63;100.00
34925;BME280;21130;51.728;8.748;2024-03-02T03:45:15;99055.25;;;4.64;100.00
34925;BME280;21130;51.728;8.748;2024-03-02T03:47:43;99048.31;;;4.73;100.00
34925;BME280;21130;51.728;8.748;2024-03-02T03:50:10;99050.22;;;4.84;100.00
34925;BME280;21130;51.728;8.748;2024-03-02T03:52:37;99044.91;;;4.94;100.00
34925;BME280;21130;51.728;8.748;2024-03-02T03:55:04;99043.00;;;4.95;100.00
34925;BME280;21130;51.728;8.748;2024-03-02T03:57:31;99048.59;;;5.00;100.00
34925;BME280;21130;51.728;8.748;2024-03-02T03:59:58;99050.84;;;5.03;100.00
34925;BME280;21130;51.728;8.748;2024-03-02T04:02:25;99055.63;;;5.08;100.00
34925;BME280;21130;51.728;8.748;2024-03-02T04:04:53;99058.47;;;5.13;100.00
34925;BME280;21130;51.728;8.748;2024-03-02T04:07:19;99059.28;;;5.13;100.00
34925;BME280;21130;51.728;8.748;2024-03-02T04:09:46;99061.94;;;5.08;100.00
34925;BME280;21130;51.728;8.748;2024-03-02T04:12:12;99063.28;;;5.06;100.00
34925;BME280;21130;51.728;8.748;2024-03-02T04:14:39;99059.47;;;5.07;100.00
34925;BME280;21130;51.728;8.748;2024-03-02T04:17:07;99074.75;;;5.14;100.00
34925;BME280;21130;51.728;8.748;2024-03-02T04:19:34;99071.63;;;5.11;100.00
34925;BME280;21130;51.728;8.748;2024-03-02T04:22:02;99071.03;;;5.09;100.00
34925;BME280;21130;51.728;8.748;2024-03-02T04:24:29;99077.28;;;5.04;100.00
34925;BME280;21130;51.728;8.748;2024-03-02T04:26:55;99067.00;;;5.00;100.00
34925;BME280;21130;51.728;8.748;2024-03-02T04:42:14;99074.59;;;4.69;100.00
34925;BME280;21130;51.728;8.748;2024-03-02T04:44:50;99078.31;;;4.63;100.00
34925;BME280;21130;51.728;8.748;2024-03-02T04:47:17;99084.03;;;4.61;100.00
34925;BME280;21130;51.728;8.748;2024-03-02T04:49:44;99079.25;;;4.68;100.00
34925;BME280;21130;51.728;8.748;2024-03-02T04:52:11;99088.69;;;4.72;100.00
34925;BME280;21130;51.728;8.748;2024-03-02T04:54:37;99094.19;;;4.72;100.00
34925;BME280;21130;51.728;8.748;2024-03-02T04:57:34;99099.09;;;4.70;100.00
34925;BME280;21130;51.728;8.748;2024-03-02T05:00:01;99097.44;;;4.69;100.00
34925;BME280;21130;51.728;8.748;2024-03-02T05:02:32;99086.44;;;4.69;100.00
34925;BME280;21130;51.728;8.748;2024-03-02T05:04:58;99090.13;;;4.75;100.00
34925;BME280;21130;51.728;8.748;2024-03-02T05:07:26;99097.06;;;4.78;100.00
34925;BME280;21130;51.728;8.748;2024-03-02T05:09:52;99098.72;;;4.79;100.00
34925;BME280;21130;51.728;8.748;2024-03-02T05:12:18;99087.50;;;4.80;100.00
34925;BME280;21130;51.728;8.748;2024-03-02T05:15:23;99096.81;;;4.79;100.00
34925;BME280;21130;51.728;8.748;2024-03-02T05:17:48;99097.19;;;4.71;100.00
34925;BME280;21130;51.728;8.748;2024-03-02T05:20:15;99094.44;;;4.71;100.00
34925;BME280;21130;51.728;8.748;2024-03-02T05:22:42;99093.22;;;4.79;100.00
34925;BME280;21130;51.728;8.748;2024-03-02T05:25:08;99103.75;;;4.82;100.00
34925;BME280;21130;51.728;8.748;2024-03-02T05:27:36;99094.31;;;4.78;100.00
34925;BME280;21130;51.728;8.748;2024-03-02T05:30:02;99102.31;;;4.79;100.00
34925;BME280;21130;51.728;8.748;2024-03-02T05:32:32;99106.13;;;4.78;100.00
34925;BME280;21130;51.728;8.748;2024-03-02T05:34:59;99103.88;;;4.75;100.00
34925;BME280;21130;51.728;8.748;2024-03-02T05:37:25;99108.88;;;4.78;100.00
34925;BME280;21130;51.728;8.748;2024-03-02T05:39:52;99118.44;;;4.75;100.00
34925;BME280;21130;51.728;8.748;2024-03-02T05:42:18;99105.31;;;4.78;100.00
34925;BME280;21130;51.728;8.748;2024-03-02T05:44:45;99108.88;;;4.78;100.00
34925;BME280;21130;51.728;8.748;2024-03-02T05:47:11;99109.88;;;4.72;100.00
34925;BME280;21130;51.728;8.748;2024-03-02T05:49:39;99121.91;;;4.71;100.00
34925;BME280;21130;51.728;8.748;2024-03-02T05:52:06;99123.13;;;4.75;100.00
34925;BME280;21130;51.728;8.748;2024-03-02T05:54:33;99118.69;;;4.74;100.00
34925;BME280;21130;51.728;8.748;2024-03-02T05:56:59;99119.16;;;4.83;100.00
34925;BME280;21130;51.728;8.748;2024-03-02T05:59:42;99113.44;;;4.84;100.00
34925;BME280;21130;51.728;8.748;2024-03-02T06:02:08;99114.00;;;4.86;100.00
34925;BME280;21130;51.728;8.748;2024-03-02T06:04:36;99113.78;;;4.88;100.00
34925;BME280;21130;51.728;8.748;2024-03-02T06:07:04;99109.09;;;4.88;100.00
34925;BME280;21130;51.728;8.748;2024-03-02T06:09:30;99108.28;;;4.88;100.00
34925;BME280;21130;51.728;8.748;2024-03-02T06:11:57;99112.22;;;4.92;100.00
34925;BME280;21130;51.728;8.748;2024-03-02T06:14:23;99116.63;;;4.93;100.00
34925;BME280;21130;51.728;8.748;2024-03-02T06:16:49;99121.28;;;4.92;100.00
34925;BME280;21130;51.728;8.748;2024-03-02T06:19:16;99130.38;;;4.93;100.00
34925;BME280;21130;51.728;8.748;2024-03-02T06:21:43;99125.09;;;4.91;100.00
34925;BME280;21130;51.728;8.748;2024-03-02T06:24:11;99129.28;;;4.94;100.00
34925;BME280;21130;51.728;8.748;2024-03-02T06:26:37;99126.31;;;4.95;100.00
34925;BME280;21130;51.728;8.748;2024-03-02T06:29:04;99135.03;;;4.92;100.00
34925;BME280;21130;51.728;8.748;2024-03-02T06:31:31;99140.28;;;4.94;100.00
34925;BME280;21130;51.728;8.748;2024-03-02T06:33:57;99147.09;;;4.91;100.00
34925;BME280;21130;51.728;8.748;2024-03-02T06:36:23;99132.03;;;4.94;100.00
34925;BME280;21130;51.728;8.748;2024-03-02T06:38:50;99131.69;;;4.90;100.00
34925;BME280;21130;51.728;8.748;2024-03-02T06:41:17;99141.97;;;4.95;100.00
34925;BME280;21130;51.728;8.748;2024-03-02T06:43:44;99138.50;;;5.00;100.00
34925;BME280;21130;51.728;8.748;2024-03-02T06:46:13;99132.41;;;4.97;100.00
34925;BME280;21130;51.728;8.748;2024-03-02T06:48:40;99138.00;;;5.03;100.00
34925;BME280;21130;51.728;8.748;2024-03-02T06:51:06;99143.63;;;5.08;100.00
34925;BME280;21130;51.728;8.748;2024-03-02T06:53:32;99149.00;;;5.14;100.00
34925;BME280;21130;51.728;8.748;2024-03-02T06:55:59;99145.47;;;5.19;100.00
34925;BME280;21130;51.728;8.748;2024-03-02T06:58:27;99146.19;;;5.26;100.00
34925;BME280;21130;51.728;8.748;2024-03-02T07:00:53;99151.22;;;5.29;100.00
34925;BME280;21130;51.728;8.748;2024-03-02T07:03:20;99149.91;;;5.32;100.00
34925;BME280;21130;51.728;8.748;2024-03-02T07:05:46;99150.47;;;5.34;100.00
34925;BME280;21130;51.728;8.748;2024-03-02T07:08:14;99149.41;;;5.35;100.00
34925;BME280;21130;51.728;8.748;2024-03-02T07:10:41;99157.66;;;5.35;100.00
34925;BME280;21130;51.728;8.748;2024-03-02T07:13:07;99161.34;;;5.40;100.00
34925;BME280;21130;51.728;8.748;2024-03-02T07:15:35;99156.56;;;5.36;100.00
34925;BME280;21130;51.728;8.748;2024-03-02T07:18:15;99172.94;;;5.43;100.00
34925;BME280;21130;51.728;8.748;2024-03-02T07:20:41;99165.19;;;5.39;100.00
34925;BME280;21130;51.728;8.748;2024-03-02T07:23:08;99167.84;;;5.34;100.00
34925;BME280;21130;51.728;8.748;2024-03-02T07:25:34;99168.16;;;5.38;100.00
34925;BME280;21130;51.728;8.748;2024-03-02T07:28:01;99177.63;;;5.42;100.00
34925;BME280;21130;51.728;8.748;2024-03-02T07:30:28;99175.09;;;5.40;100.00
34925;BME280;21130;51.728;8.748;2024-03-02T07:32:55;99176.75;;;5.41;100.00
34925;BME280;21130;51.728;8.748;2024-03-02T07:35:22;99176.53;;;5.43;100.00
34925;BME280;21130;51.728;8.748;2024-03-02T07:37:51;99180.09;;;5.44;100.00
34925;BME280;21130;51.728;8.748;2024-03-02T07:40:18;99179.03;;;5.45;100.00
34925;BME280;21130;51.728;8.748;2024-03-02T07:42:45;99178.56;;;5.48;100.00
34925;BME280;21130;51.728;8.748;2024-03-02T07:45:11;99184.66;;;5.50;100.00
34925;BME280;21130;51.728;8.748;2024-03-02T07:47:38;99195.75;;;5.55;100.00
34925;BME280;21130;51.728;8.748;2024-03-02T07:50:07;99205.34;;;5.52;100.00
34925;BME280;21130;51.728;8.748;2024-03-02T07:52:34;99209.53;;;5.55;100.00
34925;BME280;21130;51.728;8.748;2024-03-02T07:55:00;99212.38;;;5.60;100.00
34925;BME280;21130;51.728;8.748;2024-03-02T07:57:27;99216.28;;;5.64;100.00
34925;BME280;21130;51.728;8.748;2024-03-02T07:59:53;99211.97;;;5.68;100.00
34925;BME280;21130;51.728;8.748;2024-03-02T08:02:20;99211.47;;;5.71;100.00
34925;BME280;21130;51.728;8.748;2024-03-02T08:04:47;99211.13;;;5.79;100.00
34925;BME280;21130;51.728;8.748;2024-03-02T08:07:15;99220.03;;;5.87;100.00
34925;BME280;21130;51.728;8.748;2024-03-02T08:09:41;99210.44;;;5.89;100.00
34925;BME280;21130;51.728;8.748;2024-03-02T08:12:08;99213.69;;;5.98;100.00
34925;BME280;21130;51.728;8.748;2024-03-02T08:14:34;99221.47;;;6.01;100.00
34925;BME280;21130;51.728;8.748;2024-03-02T08:17:01;99215.53;;;6.09;100.00
34925;BME280;21130;51.728;8.748;2024-03-02T08:19:27;99212.41;;;6.17;100.00
34925;BME280;21130;51.728;8.748;2024-03-02T08:21:54;99215.34;;;6.27;100.00
34925;BME280;21130;51.728;8.748;2024-03-02T08:24:22;99214.59;;;6.49;100.00
34925;BME280;21130;51.728;8.748;2024-03-02T08:26:48;99206.56;;;6.64;100.00
34925;BME280;21130;51.728;8.748;2024-03-02T08:29:14;99212.59;;;6.78;100.00
34925;BME280;21130;51.728;8.748;2024-03-02T08:31:41;99202.91;;;7.14;100.00
34925;BME280;21130;51.728;8.748;2024-03-02T08:34:07;99204.56;;;7.32;100.00
34925;BME280;21130;51.728;8.748;2024-03-02T08:36:34;99195.38;;;7.71;100.00
34925;BME280;21130;51.728;8.748;2024-03-02T08:39:01;99196.47;;;7.97;100.00
34925;BME280;21130;51.728;8.748;2024-03-02T08:41:29;99199.03;;;8.31;100.00
34925;BME280;21130;51.728;8.748;2024-03-02T08:43:56;99197.41;;;8.62;100.00
34925;BME280;21130;51.728;8.748;2024-03-02T08:46:22;99202.13;;;8.67;100.00
34925;BME280;21130;51.728;8.748;2024-03-02T08:48:49;99204.75;;;8.83;100.00
34925;BME280;21130;51.728;8.748;2024-03-02T08:51:15;99205.94;;;8.98;100.00
34925;BME280;21130;51.728;8.748;2024-03-02T08:53:42;99202.25;;;9.24;100.00
34925;BME280;21130;51.728;8.748;2024-03-02T08:56:09;99204.06;;;9.51;100.00
34925;BME280;21130;51.728;8.748;2024-03-02T08:58:37;99197.00;;;9.91;100.00
34925;BME280;21130;51.728;8.748;2024-03-02T09:01:03;99193.97;;;10.08;100.00
34925;BME280;21130;51.728;8.748;2024-03-02T09:03:30;99198.50;;;10.29;100.00
34925;BME280;21130;51.728;8.748;2024-03-02T09:05:58;99185.22;;;10.57;100.00
34925;BME280;21130;51.728;8.748;2024-03-02T09:08:24;99189.84;;;10.21;100.00
34925;BME280;21130;51.728;8.748;2024-03-02T09:11:11;99181.53;;;10.15;100.00
34925;BME280;21130;51.728;8.748;2024-03-02T09:13:59;99189.66;;;10.84;100.00
34925;BME280;21130;51.728;8.748;2024-03-02T09:16:43;99181.88;;;10.34;100.00
34925;BME280;21130;51.728;8.748;2024-03-02T09:19:10;99191.84;;;10.46;100.00
34925;BME280;21130;51.728;8.748;2024-03-02T09:21:37;99193.78;;;10.35;100.00
34925;BME280;21130;51.728;8.748;2024-03-02T09:24:03;99199.88;;;11.19;100.00
34925;BME280;21130;51.728;8.748;2024-03-02T09:26:31;99198.72;;;11.25;100.00
34925;BME280;21130;51.728;8.748;2024-03-02T09:28:59;99185.00;;;11.64;100.00
34925;BME280;21130;51.728;8.748;2024-03-02T09:31:26;99189.50;;;11.50;100.00
34925;BME280;21130;51.728;8.748;2024-03-02T09:33:52;99194.25;;;11.39;100.00
34925;BME280;21130;51.728;8.748;2024-03-02T09:36:19;99196.81;;;11.96;100.00
34925;BME280;21130;51.728;8.748;2024-03-02T09:38:45;99192.16;;;11.76;100.00
34925;BME280;21130;51.728;8.748;2024-03-02T09:41:12;99188.47;;;11.96;100.00
34925;BME280;21130;51.728;8.748;2024-03-02T09:43:38;99178.72;;;12.43;100.00
34925;BME280;21130;51.728;8.748;2024-03-02T09:46:09;99179.38;;;12.64;100.00
34925;BME280;21130;51.728;8.748;2024-03-02T09:48:35;99183.16;;;12.44;100.00
34925;BME280;21130;51.728;8.748;2024-03-02T09:51:03;99185.16;;;11.99;100.00
34925;BME280;21130;51.728;8.748;2024-03-02T09:53:31;99187.31;;;12.07;100.00
34925;BME280;21130;51.728;8.748;2024-03-02T09:55:58;99186.72;;;12.10;100.00
34925;BME280;21130;51.728;8.748;2024-03-02T09:58:25;99180.94;;;12.06;100.00
34925;BME280;21130;51.728;8.748;2024-03-02T10:00:51;99193.91;;;12.16;100.00
34925;BME280;21130;51.728;8.748;2024-03-02T10:03:19;99185.03;;;12.19;100.00
34925;BME280;21130;51.728;8.748;2024-03-02T10:05:46;99185.69;;;12.40;100.00
34925;BME280;21130;51.728;8.748;2024-03-02T10:08:12;99185.97;;;11.99;100.00
34925;BME280;21130;51.728;8.748;2024-03-02T10:10:40;99185.63;;;12.50;100.00
34925;BME280;21130;51.728;8.748;2024-03-02T10:13:09;99172.22;;;12.58;100.00
34925;BME280;21130;51.728;8.748;2024-03-02T10:15:36;99184.25;;;12.82;100.00
34925;BME280;21130;51.728;8.748;2024-03-02T10:18:03;99184.31;;;13.35;96.58
34925;BME280;21130;51.728;8.748;2024-03-02T10:20:31;99179.44;;;13.46;93.08
34925;BME280;21130;51.728;8.748;2024-03-02T10:23:09;99170.88;;;12.50;100.00
34925;BME280;21130;51.728;8.748;2024-03-02T10:25:36;99182.56;;;12.52;100.00
34925;BME280;21130;51.728;8.748;2024-03-02T10:28:03;99179.69;;;12.62;100.00
34925;BME280;21130;51.728;8.748;2024-03-02T10:30:32;99177.38;;;12.74;100.00
34925;BME280;21130;51.728;8.748;2024-03-02T10:32:58;99166.00;;;12.66;100.00
34925;BME280;21130;51.728;8.748;2024-03-02T10:35:26;99171.59;;;12.95;100.00
34925;BME280;21130;51.728;8.748;2024-03-02T10:37:53;99169.06;;;13.28;97.09
34925;BME280;21130;51.728;8.748;2024-03-02T10:40:21;99166.56;;;13.74;92.46
34925;BME280;21130;51.728;8.748;2024-03-02T10:42:49;99170.72;;;13.29;89.85
34925;BME280;21130;51.728;8.748;2024-03-02T10:45:16;99171.34;;;12.91;97.02
34925;BME280;21130;51.728;8.748;2024-03-02T10:47:43;99178.25;;;13.28;92.67
34925;BME280;21130;51.728;8.748;2024-03-02T10:53:18;99172.63;;;13.04;95.75
34925;BME280;21130;51.728;8.748;2024-03-02T10:55:45;99168.06;;;13.13;99.53
34925;BME280;21130;51.728;8.748;2024-03-02T10:58:15;99162.22;;;13.15;94.40
34925;BME280;21130;51.728;8.748;2024-03-02T11:00:43;99162.97;;;13.21;93.98
34925;BME280;21130;51.728;8.748;2024-03-02T11:03:11;99163.84;;;12.92;97.50
34925;BME280;21130;51.728;8.748;2024-03-02T11:05:39;99169.63;;;13.25;92.68
34925;BME280;21130;51.728;8.748;2024-03-02T11:08:08;99162.22;;;13.15;92.70
34925;BME280;21130;51.728;8.748;2024-03-02T11:10:47;99169.72;;;13.44;88.90
34925;BME280;21130;51.728;8.748;2024-03-02T11:13:22;99162.34;;;13.77;86.99
34925;BME280;21130;51.728;8.748;2024-03-02T11:15:52;99162.06;;;13.97;83.73
34925;BME280;21130;51.728;8.748;2024-03-02T11:18:21;99160.16;;;14.12;80.07
34925;BME280;21130;51.728;8.748;2024-03-02T11:20:47;99162.78;;;13.84;82.44
34925;BME280;21130;51.728;8.748;2024-03-02T11:23:15;99160.16;;;14.12;81.07
34925;BME280;21130;51.728;8.748;2024-03-02T11:25:43;99156.84;;;14.29;82.28
34925;BME280;21130;51.728;8.748;2024-03-02T11:28:10;99159.53;;;14.72;80.71
34925;BME280;21130;51.728;8.748;2024-03-02T11:30:49;99142.78;;;14.20;78.13
34925;BME280;21130;51.728;8.748;2024-03-02T11:33:25;99153.78;;;14.30;79.99
34925;BME280;21130;51.728;8.748;2024-03-02T11:35:52;99150.53;;;14.04;81.29
34925;BME280;21130;51.728;8.748;2024-03-02T11:38:19;99158.56;;;13.68;84.50
34925;BME280;21130;51.728;8.748;2024-03-02T11:40:46;99153.78;;;13.49;89.23
34925;BME280;21130;51.728;8.748;2024-03-02T11:43:13;99162.06;;;13.97;84.99
34925;BME280;21130;51.728;8.748;2024-03-02T11:45:42;99156.94;;;13.86;85.71
34925;BME280;21130;51.728;8.748;2024-03-02T11:48:10;99159.88;;;14.13;80.69
34925;BME280;21130;51.728;8.748;2024-03-02T11:50:40;99156.56;;;13.49;85.65
34925;BME280;21130;51.728;8.748;2024-03-02T11:53:08;99158.72;;;13.04;91.39
34925;BME280;21130;51.728;8.748;2024-03-02T11:55:36;99149.66;;;12.59;97.40
34925;BME280;21130;51.728;8.748;2024-03-02T11:58:04;99154.44;;;12.83;98.46
34925;BME280;21130;51.728;8.748;2024-03-02T12:00:31;99146.94;;;13.36;94.72
34925;BME280;21130;51.728;8.748;2024-03-02T12:03:00;99151.56;;;13.46;91.85
34925;BME280;21130;51.728;8.748;2024-03-02T12:05:27;99154.69;;;13.15;91.77
34925;BME280;21130;51.728;8.748;2024-03-02T12:07:56;99157.19;;;13.17;91.83
34925;BME280;21130;51.728;8.748;2024-03-02T12:10:23;99145.50;;;13.39;92.36
34925;BME280;21130;51.728;8.748;2024-03-02T12:12:55;99148.69;;;13.32;92.30
34925;BME280;21130;51.728;8.748;2024-03-02T12:15:25;99161.78;;;13.03;93.68
34925;BME280;21130;51.728;8.748;2024-03-02T12:17:55;99155.56;;;13.11;91.70
34925;BME280;21130;51.728;8.748;2024-03-02T12:20:22;99154.13;;;13.13;90.88
34925;BME280;21130;51.728;8.748;2024-03-02T12:23:09;99150.25;;;13.63;88.21
34925;BME280;21130;51.728;8.748;2024-03-02T12:25:54;99145.56;;;14.01;82.85
34925;BME280;21130;51.728;8.748;2024-03-02T12:28:22;99136.75;;;14.13;78.98
34925;BME280;21130;51.728;8.748;2024-03-02T12:30:50;99139.28;;;14.28;80.60
34925;BME280;21130;51.728;8.748;2024-03-02T12:33:17;99134.47;;;14.15;78.91
34925;BME280;21130;51.728;8.748;2024-03-02T12:35:43;99135.91;;;14.12;77.22
34925;BME280;21130;51.728;8.748;2024-03-02T12:38:10;99129.41;;;14.17;78.26
34925;BME280;21130;51.728;8.748;2024-03-02T12:40:37;99140.34;;;14.32;74.67
34925;BME280;21130;51.728;8.748;2024-03-02T12:43:05;99123.22;;;14.58;73.75
34925;BME280;21130;51.728;8.748;2024-03-02T12:45:52;99120.25;;;14.68;72.56
34925;BME280;21130;51.728;8.748;2024-03-02T12:48:41;99117.81;;;14.94;70.55
34925;BME280;21130;51.728;8.748;2024-03-02T12:51:29;99121.94;;;14.97;69.79
34925;BME280;21130;51.728;8.748;2024-03-02T12:53:57;99117.81;;;14.94;69.38
34925;BME280;21130;51.728;8.748;2024-03-02T12:56:23;99118.13;;;14.93;68.42
34925;BME280;21130;51.728;8.748;2024-03-02T12:58:53;99122.03;;;14.91;69.27
34925;BME280;21130;51.728;8.748;2024-03-02T13:01:21;99118.88;;;14.65;69.18
34925;BME280;21130;51.728;8.748;2024-03-02T13:03:48;99109.44;;;15.22;68.12
34925;BME280;21130;51.728;8.748;2024-03-02T13:06:16;99110.19;;;15.27;66.82
34925;BME280;21130;51.728;8.748;2024-03-02T13:08:43;99103.25;;;15.11;65.48
34925;BME280;21130;51.728;8.748;2024-03-02T13:11:11;99110.19;;;15.41;65.70
34925;BME280;21130;51.728;8.748;2024-03-02T13:13:38;99106.06;;;15.25;64.17
34925;BME280;21130;51.728;8.748;2024-03-02T13:16:08;99100.44;;;15.11;64.40
34925;BME280;21130;51.728;8.748;2024-03-02T13:18:36;99099.53;;;15.43;65.23
34925;BME280;21130;51.728;8.748;2024-03-02T13:21:02;99091.00;;;15.62;64.97